Time;durP1;ratioP1;P1;durP2;ratioP2;P2;SDS_P1;SDS_P2;PMS_P1;PMS_P2;Temp;Humidity;BMP_temperature;BMP_pressure;BME280_temperature;BME280_humidity;BME280_pressure;Samples;Min_cycle;Max_cycle;Signal;HPM_P1;HPM_P2
2021/12/24 00:00:57;;;;;;;3.77;2.27;;;6.30;99.90;;;;;;5085162;28;20217;-64
2021/12/24 00:03:24;;;;;;;5.33;2.03;;;6.30;99.90;;;;;;5084964;28;20287;-64
2021/12/24 00:05:51;;;;;;;4.27;1.87;;;6.30;99.90;;;;;;5085435;28;20300;-64
2021/12/24 00:08:19;;;;;;;3.30;2.30;;;6.40;99.90;;;;;;5084109;28;20268;-65
2021/12/24 00:10:50;;;;;;;2.20;1.70;;;6.50;99.90;;;;;;5085275;28;20343;-64
2021/12/24 00:13:18;;;;;;;2.57;1.57;;;6.50;99.90;;;;;;5084815;28;20201;-64
2021/12/24 00:18:38;;;;;;;3.27;2.00;;;6.50;99.90;;;;;;5084476;28;20196;-65
2021/12/24 00:37:34;;;;;;;2.47;2.13;;;6.50;99.90;;;;;;5084278;28;20268;-64
2021/12/24 00:40:11;;;;;;;5.57;2.90;;;6.60;99.90;;;;;;5084110;28;20284;-64
2021/12/24 00:42:39;;;;;;;2.23;1.80;;;6.60;99.90;;;;;;5084716;28;20223;-64
2021/12/24 00:45:07;;;;;;;2.47;1.80;;;6.60;99.90;;;;;;5085032;28;20232;-64
2021/12/24 00:47:34;;;;;;;2.57;2.10;;;6.60;99.90;;;;;;5084926;28;20197;-63
2021/12/24 00:50:06;;;;;;;3.00;2.13;;;6.60;99.90;;;;;;5084795;28;20288;-64
2021/12/24 00:52:46;;;;;;;2.73;2.20;;;6.60;99.90;;;;;;5083878;28;20228;-64
2021/12/24 00:55:13;;;;;;;4.33;2.37;;;6.60;99.90;;;;;;5084497;28;20222;-64
2021/12/24 00:57:43;;;;;;;2.57;2.00;;;6.70;99.90;;;;;;5084369;28;20215;-62
2021/12/24 01:00:13;;;;;;;4.33;2.57;;;6.70;99.90;;;;;;5087101;28;20231;-64
2021/12/24 01:02:40;;;;;;;5.00;2.27;;;6.80;99.90;;;;;;5088373;28;20236;-62
2021/12/24 01:05:08;;;;;;;4.00;2.07;;;6.80;99.90;;;;;;5088995;28;20205;-64
2021/12/24 01:07:35;;;;;;;3.60;2.27;;;6.90;99.90;;;;;;5088122;28;20264;-64
2021/12/24 01:10:02;;;;;;;3.70;2.37;;;6.90;99.90;;;;;;5087782;28;20285;-64
2021/12/24 01:12:31;;;;;;;5.50;2.63;;;6.90;99.90;;;;;;5088590;28;20255;-64
2021/12/24 01:14:57;;;;;;;3.23;2.00;;;6.90;99.90;;;;;;5088327;28;20264;-64
2021/12/24 01:17:34;;;;;;;4.40;2.23;;;6.90;99.90;;;;;;5088501;28;20220;-64
2021/12/24 01:20:06;;;;;;;4.23;2.80;;;6.90;99.90;;;;;;5088218;28;20225;-64
2021/12/24 01:25:27;;;;;;;2.83;2.40;;;6.80;99.90;;;;;;5069965;28;20279;-64
2021/12/24 01:28:12;;;;;;;3.70;2.57;;;6.70;99.90;;;;;;5087899;28;20201;-64
2021/12/24 01:39:04;;;;;;;3.73;2.90;;;6.80;99.90;;;;;;5086905;28;20283;-64
2021/12/24 01:44:18;;;;;;;5.73;2.67;;;6.70;99.90;;;;;;5087929;28;20184;-64
2021/12/24 01:46:45;;;;;;;4.47;2.40;;;6.70;99.90;;;;;;5087689;28;20544;-64
2021/12/24 01:49:12;;;;;;;2.83;2.47;;;6.80;99.90;;;;;;5087557;28;20229;-64
2021/12/24 01:51:39;;;;;;;3.20;2.40;;;6.80;99.90;;;;;;5086926;28;20204;-64
2021/12/24 01:54:06;;;;;;;2.87;2.27;;;6.80;99.90;;;;;;5086662;28;20288;-64
2021/12/24 01:56:32;;;;;;;5.70;2.67;;;6.90;99.90;;;;;;5087518;28;20297;-65
2021/12/24 01:58:59;;;;;;;4.70;3.00;;;6.90;99.90;;;;;;5087314;28;20242;-64
2021/12/24 02:01:27;;;;;;;3.67;2.83;;;6.90;99.90;;;;;;5087517;28;20255;-64
2021/12/24 02:03:54;;;;;;;5.60;2.77;;;6.90;99.90;;;;;;5087407;28;20553;-64
2021/12/24 02:06:21;;;;;;;3.13;2.50;;;6.90;99.90;;;;;;5087224;28;20211;-64
2021/12/24 02:08:48;;;;;;;4.07;2.70;;;6.90;99.90;;;;;;5086436;28;20201;-64
2021/12/24 02:11:16;;;;;;;3.07;2.40;;;6.90;99.90;;;;;;5086902;28;20267;-64
2021/12/24 02:13:42;;;;;;;2.83;2.30;;;7.00;99.90;;;;;;5087383;28;20197;-65
2021/12/24 02:16:17;;;;;;;4.50;2.80;;;7.00;99.90;;;;;;5087360;28;20200;-65
2021/12/24 02:29:41;;;;;;;3.20;2.20;;;7.00;99.90;;;;;;5086529;28;20219;-64
2021/12/24 02:32:08;;;;;;;5.00;2.90;;;7.00;99.90;;;;;;5086962;28;20205;-64
2021/12/24 02:34:35;;;;;;;4.60;2.90;;;6.90;99.90;;;;;;5086786;28;20201;-64
2021/12/24 02:37:03;;;;;;;2.20;1.80;;;6.90;99.90;;;;;;5086247;28;20237;-64
2021/12/24 02:39:30;;;;;;;4.10;2.80;;;7.00;99.90;;;;;;5085994;28;20208;-64
2021/12/24 02:41:58;;;;;;;5.00;2.40;;;7.00;99.90;;;;;;5086718;28;20221;-64
2021/12/24 02:44:24;;;;;;;4.53;2.47;;;7.00;99.90;;;;;;5086638;28;20266;-64
2021/12/24 02:47:10;;;;;;;4.13;2.53;;;7.00;99.90;;;;;;5086864;28;20269;-64
2021/12/24 02:55:12;;;;;;;5.43;2.10;;;7.00;99.90;;;;;;5086383;28;20264;-64
2021/12/24 02:57:40;;;;;;;3.60;2.10;;;7.10;99.90;;;;;;5086500;28;20201;-63
2021/12/24 03:00:14;;;;;;;2.97;2.27;;;7.10;99.90;;;;;;5086376;28;20228;-64
2021/12/24 03:02:44;;;;;;;4.93;2.87;;;7.10;99.90;;;;;;5086212;28;20230;-63
2021/12/24 03:05:12;;;;;;;5.33;2.60;;;7.10;99.90;;;;;;5086669;28;20197;-64
2021/12/24 03:07:41;;;;;;;2.60;1.97;;;7.10;99.90;;;;;;5085599;28;20209;-63
2021/12/24 03:10:13;;;;;;;4.87;2.83;;;7.10;99.90;;;;;;5086055;28;20229;-64
2021/12/24 03:12:40;;;;;;;3.00;2.27;;;7.10;99.90;;;;;;5085756;28;20235;-64
2021/12/24 03:15:09;;;;;;;2.80;2.10;;;7.10;99.90;;;;;;5086293;28;20228;-64
2021/12/24 03:17:35;;;;;;;3.20;2.13;;;7.10;99.90;;;;;;5085753;28;20202;-65
2021/12/24 03:20:08;;;;;;;4.00;2.50;;;7.10;99.90;;;;;;5086022;28;20287;-64
2021/12/24 03:22:45;;;;;;;2.77;2.03;;;7.20;99.90;;;;;;5084574;28;20205;-64
2021/12/24 03:25:13;;;;;;;5.50;2.40;;;7.20;99.90;;;;;;5085522;28;20616;-65
2021/12/24 03:27:40;;;;;;;3.93;2.70;;;7.20;99.90;;;;;;5085581;28;20204;-63
2021/12/24 03:30:08;;;;;;;3.60;2.27;;;7.20;99.90;;;;;;5085643;28;20215;-63
2021/12/24 03:32:35;;;;;;;2.83;2.10;;;7.10;99.90;;;;;;5085810;28;20207;-63
2021/12/24 03:35:03;;;;;;;2.53;1.90;;;7.10;99.90;;;;;;5085659;28;20242;-64
2021/12/24 03:37:29;;;;;;;4.03;2.23;;;7.10;99.90;;;;;;5084915;28;20237;-64
2021/12/24 03:39:56;;;;;;;3.77;2.20;;;7.10;99.90;;;;;;5084924;28;20296;-64
2021/12/24 03:42:24;;;;;;;2.83;1.77;;;7.10;99.90;;;;;;5085598;28;20209;-64
2021/12/24 03:44:58;;;;;;;4.97;2.13;;;7.10;99.90;;;;;;5085464;28;20277;-63
2021/12/24 03:47:27;;;;;;;2.83;1.80;;;7.10;99.90;;;;;;5085604;28;20197;-64
2021/12/24 03:50:01;;;;;;;3.13;1.83;;;7.10;99.90;;;;;;5085304;28;20212;-65
2021/12/24 03:52:50;;;;;;;3.50;1.80;;;7.10;99.90;;;;;;5084825;28;20296;-64
2021/12/24 03:55:16;;;;;;;1.93;1.50;;;7.10;99.90;;;;;;5085106;28;20419;-64
2021/12/24 03:57:45;;;;;;;1.87;1.43;;;7.10;99.90;;;;;;5084935;28;20667;-63
2021/12/24 04:00:15;;;;;;;2.17;1.40;;;7.10;99.90;;;;;;5085171;28;20291;-64
2021/12/24 04:02:42;;;;;;;6.60;1.87;;;7.00;99.90;;;;;;5084976;28;20269;-64
2021/12/24 04:05:09;;;;;;;3.27;1.90;;;7.00;99.90;;;;;;5085612;28;20211;-64
2021/12/24 04:07:36;;;;;;;5.07;1.70;;;7.00;99.90;;;;;;5084751;28;20273;-65
2021/12/24 04:10:10;;;;;;;2.40;1.20;;;7.00;99.90;;;;;;5084371;28;20209;-64
2021/12/24 04:12:37;;;;;;;2.60;1.73;;;6.90;99.90;;;;;;5084991;28;20209;-64
2021/12/24 04:15:06;;;;;;;2.50;1.63;;;6.90;99.90;;;;;;5085327;28;20208;-64
2021/12/24 04:17:36;;;;;;;3.20;1.80;;;7.00;99.90;;;;;;5084919;28;20273;-64
2021/12/24 04:25:32;;;;;;;3.50;1.90;;;7.00;99.90;;;;;;5084695;28;20208;-64
2021/12/24 04:28:00;;;;;;;1.77;1.50;;;7.00;99.90;;;;;;5084849;28;20208;-64
2021/12/24 04:30:29;;;;;;;2.20;1.50;;;7.00;99.90;;;;;;5085064;28;20227;-64
2021/12/24 04:33:01;;;;;;;1.93;1.30;;;6.90;99.90;;;;;;5084399;28;20201;-64
2021/12/24 04:35:40;;;;;;;1.80;1.50;;;6.90;99.90;;;;;;5085045;28;20186;-65
2021/12/24 04:38:28;;;;;;;2.10;1.53;;;7.00;99.90;;;;;;5083147;28;20232;-64
2021/12/24 04:51:59;;;;;;;2.37;1.30;;;6.90;99.90;;;;;;5083958;28;20614;-64
2021/12/24 05:02:53;;;;;;;1.63;1.37;;;6.90;99.90;;;;;;5084423;28;20290;-65
2021/12/24 05:05:23;;;;;;;1.63;1.47;;;6.90;99.90;;;;;;5084780;28;20195;-64
2021/12/24 05:10:41;;;;;;;2.00;1.57;;;7.00;99.90;;;;;;5068999;28;20225;-64
2021/12/24 05:13:09;;;;;;;1.50;1.40;;;6.90;99.90;;;;;;5084369;28;20251;-65
2021/12/24 05:15:38;;;;;;;1.93;1.30;;;6.90;99.90;;;;;;5084645;28;20681;-64
2021/12/24 05:18:26;;;;;;;2.13;1.50;;;6.90;99.90;;;;;;5084384;28;20209;-64
2021/12/24 05:23:37;;;;;;;1.50;1.10;;;6.90;99.90;;;;;;5082864;28;20222;-64
2021/12/24 05:26:05;;;;;;;3.10;1.80;;;6.90;99.90;;;;;;5084714;28;20201;-64
2021/12/24 05:28:32;;;;;;;2.00;1.30;;;6.90;99.90;;;;;;5084061;28;20583;-64
2021/12/24 05:30:59;;;;;;;4.20;1.70;;;6.90;99.90;;;;;;5084545;28;20207;-66
2021/12/24 05:33:28;;;;;;;2.77;1.27;;;6.90;99.90;;;;;;5084212;28;20204;-64
2021/12/24 05:35:55;;;;;;;1.33;1.23;;;6.90;99.90;;;;;;5084501;28;20208;-64
2021/12/24 05:38:22;;;;;;;1.17;1.07;;;6.90;99.90;;;;;;5082791;28;20304;-64
2021/12/24 05:40:49;;;;;;;3.00;1.40;;;7.00;99.90;;;;;;5084142;28;20698;-63
2021/12/24 05:43:16;;;;;;;2.00;1.13;;;6.90;99.90;;;;;;5084012;28;20201;-64
2021/12/24 05:45:43;;;;;;;1.47;1.20;;;6.90;99.90;;;;;;5086157;28;20201;-65
2021/12/24 05:48:09;;;;;;;1.80;1.33;;;6.90;99.90;;;;;;5087555;28;20224;-65
2021/12/24 05:50:38;;;;;;;1.63;1.53;;;6.90;99.90;;;;;;5087855;28;20201;-65
2021/12/24 05:53:04;;;;;;;1.30;1.13;;;6.90;99.90;;;;;;5086440;28;20224;-64
2021/12/24 05:55:31;;;;;;;0.90;0.90;;;6.90;99.90;;;;;;5084242;28;20291;-61
2021/12/24 05:57:59;;;;;;;1.33;1.03;;;6.90;99.90;;;;;;5084207;28;20193;-64
2021/12/24 06:00:26;;;;;;;1.30;1.10;;;6.90;99.90;;;;;;5084289;28;20628;-63
2021/12/24 06:02:53;;;;;;;1.40;1.13;;;6.90;99.90;;;;;;5084784;28;20221;-63
2021/12/24 06:05:20;;;;;;;3.43;1.50;;;6.90;99.90;;;;;;5085606;28;20262;-64
2021/12/24 06:07:48;;;;;;;1.00;1.00;;;6.90;99.90;;;;;;5084522;28;20207;-63
2021/12/24 06:10:15;;;;;;;1.60;1.13;;;6.90;99.90;;;;;;5085602;28;20204;-63
2021/12/24 06:12:42;;;;;;;1.13;1.03;;;6.90;99.90;;;;;;5084632;28;20204;-60
2021/12/24 06:15:10;;;;;;;1.57;1.20;;;6.90;99.90;;;;;;5085442;28;20212;-63
2021/12/24 06:17:38;;;;;;;1.30;1.20;;;6.90;99.90;;;;;;5085053;28;20221;-63
2021/12/24 06:20:08;;;;;;;2.30;1.17;;;6.90;99.90;;;;;;5084962;28;20673;-63
2021/12/24 06:22:35;;;;;;;1.17;1.03;;;6.90;99.90;;;;;;5082107;28;20303;-63
2021/12/24 06:25:04;;;;;;;1.40;1.20;;;7.00;99.90;;;;;;5084046;28;20582;-63
2021/12/24 06:27:31;;;;;;;1.47;1.07;;;7.00;99.90;;;;;;5085202;28;20200;-64
2021/12/24 06:29:58;;;;;;;5.40;1.27;;;7.00;99.90;;;;;;5085071;28;20197;-64
2021/12/24 06:32:25;;;;;;;0.93;0.93;;;7.00;99.90;;;;;;5084559;28;20200;-65
2021/12/24 06:34:52;;;;;;;1.83;1.30;;;7.00;99.90;;;;;;5085139;28;20564;-62
2021/12/24 06:37:19;;;;;;;1.10;1.00;;;6.90;99.90;;;;;;5084480;28;20204;-65
2021/12/24 06:39:46;;;;;;;1.30;1.20;;;7.00;99.90;;;;;;5084283;28;20292;-64
2021/12/24 06:42:15;;;;;;;1.97;1.10;;;6.90;99.90;;;;;;5083178;28;20229;-63
2021/12/24 06:44:42;;;;;;;1.40;1.30;;;6.90;99.90;;;;;;5083346;28;20194;-63
2021/12/24 06:47:09;;;;;;;2.63;1.40;;;6.90;99.90;;;;;;5085172;28;20193;-64
2021/12/24 06:49:36;;;;;;;1.93;1.40;;;6.90;99.90;;;;;;5084261;28;20242;-65
2021/12/24 06:52:03;;;;;;;1.27;1.17;;;6.90;99.90;;;;;;5084042;28;20205;-61
2021/12/24 06:54:33;;;;;;;7.30;1.27;;;6.90;99.90;;;;;;5084069;28;20273;-64
2021/12/24 06:57:00;;;;;;;1.67;1.20;;;6.90;99.90;;;;;;5082727;28;20600;-63
2021/12/24 06:59:29;;;;;;;2.20;1.37;;;6.90;99.90;;;;;;5084744;28;20196;-64
2021/12/24 07:01:59;;;;;;;2.50;2.30;;;6.90;99.90;;;;;;5085086;28;20213;-63
2021/12/24 07:04:26;;;;;;;3.27;1.90;;;6.90;99.90;;;;;;5085935;28;20193;-64
2021/12/24 07:06:53;;;;;;;2.53;1.03;;;6.90;99.90;;;;;;5084948;28;20268;-64
2021/12/24 07:09:20;;;;;;;3.83;2.07;;;6.90;99.90;;;;;;5084458;28;20671;-64
2021/12/24 07:11:48;;;;;;;1.23;0.97;;;6.90;99.90;;;;;;5085383;28;20572;-65
2021/12/24 07:14:15;;;;;;;1.47;0.83;;;6.90;99.90;;;;;;5085016;28;20201;-65
2021/12/24 07:16:43;;;;;;;1.93;1.10;;;6.90;99.90;;;;;;5084867;28;20287;-63
2021/12/24 07:19:10;;;;;;;1.17;0.93;;;6.90;99.90;;;;;;5084976;28;20273;-65
2021/12/24 07:21:38;;;;;;;1.73;1.40;;;6.90;99.90;;;;;;5084965;28;20303;-65
2021/12/24 07:24:06;;;;;;;1.43;1.13;;;6.90;99.90;;;;;;5083465;28;20587;-64
2021/12/24 07:26:33;;;;;;;1.57;1.27;;;6.90;99.90;;;;;;5085661;28;20280;-64
2021/12/24 07:29:00;;;;;;;4.23;1.20;;;6.90;99.90;;;;;;5082391;28;20224;-63
2021/12/24 07:31:26;;;;;;;2.20;1.13;;;6.90;99.90;;;;;;5085344;28;20200;-63
2021/12/24 07:33:54;;;;;;;2.07;1.43;;;6.90;99.90;;;;;;5085618;28;20204;-64
2021/12/24 07:36:21;;;;;;;1.50;1.20;;;7.00;99.90;;;;;;5085896;28;20260;-63
2021/12/24 07:38:48;;;;;;;2.50;1.20;;;6.90;99.90;;;;;;5084215;28;20239;-63
2021/12/24 07:41:15;;;;;;;1.20;1.10;;;6.90;99.90;;;;;;5085593;28;20284;-64
2021/12/24 07:43:42;;;;;;;5.90;1.57;;;6.90;99.90;;;;;;5085264;28;20696;-64
2021/12/24 07:46:09;;;;;;;12.33;5.67;;;6.90;99.90;;;;;;5085859;28;20312;-63
2021/12/24 07:48:44;;;;;;;4.70;2.03;;;6.90;99.90;;;;;;5082528;28;20616;-65
2021/12/24 07:53:59;;;;;;;1.97;1.20;;;6.90;99.90;;;;;;5063358;28;20197;-65
2021/12/24 07:56:27;;;;;;;3.27;2.00;;;6.90;99.90;;;;;;5082928;28;20189;-59
2021/12/24 07:58:54;;;;;;;2.70;2.00;;;6.90;99.90;;;;;;5081390;28;20193;-60
2021/12/24 08:01:23;;;;;;;2.00;1.30;;;7.00;99.90;;;;;;5079955;28;20197;-61
2021/12/24 08:03:52;;;;;;;4.33;2.50;;;7.00;99.90;;;;;;5083169;28;20224;-64
2021/12/24 08:06:20;;;;;;;3.33;1.57;;;7.00;99.90;;;;;;5084571;28;20220;-62
2021/12/24 08:08:47;;;;;;;5.20;3.47;;;7.00;99.90;;;;;;5078803;28;20201;-63
2021/12/24 08:11:14;;;;;;;3.03;1.73;;;7.10;99.90;;;;;;5083729;28;20199;-63
2021/12/24 08:13:41;;;;;;;2.20;1.47;;;7.10;99.90;;;;;;5083991;28;20201;-65
2021/12/24 08:16:08;;;;;;;2.10;1.63;;;7.10;99.90;;;;;;5084462;28;20252;-64
2021/12/24 08:18:36;;;;;;;2.87;1.57;;;7.10;99.90;;;;;;5084272;28;20260;-64
2021/12/24 08:21:03;;;;;;;1.30;1.00;;;7.10;99.90;;;;;;5083785;28;20733;-63
2021/12/24 08:23:32;;;;;;;1.87;1.67;;;7.10;99.90;;;;;;5083069;28;20217;-63
2021/12/24 08:25:59;;;;;;;3.80;1.73;;;7.20;99.90;;;;;;5084584;28;20258;-64
2021/12/24 08:28:26;;;;;;;2.30;1.33;;;7.20;99.90;;;;;;5084286;28;20774;-63
2021/12/24 08:30:54;;;;;;;2.07;1.07;;;7.20;99.90;;;;;;5084604;28;20205;-65
2021/12/24 08:33:20;;;;;;;2.93;1.97;;;7.20;99.90;;;;;;5083839;28;20193;-64
2021/12/24 08:35:48;;;;;;;4.30;1.60;;;7.20;99.90;;;;;;5084913;28;20594;-64
2021/12/24 08:38:15;;;;;;;3.53;1.57;;;7.30;99.90;;;;;;5083236;28;20228;-64
2021/12/24 08:40:43;;;;;;;1.63;1.53;;;7.30;99.90;;;;;;5085125;28;20289;-64
2021/12/24 08:43:10;;;;;;;2.17;1.97;;;7.30;99.90;;;;;;5084379;28;20231;-63
2021/12/24 08:45:37;;;;;;;2.63;1.23;;;7.30;99.90;;;;;;5085025;28;20227;-64
2021/12/24 08:48:04;;;;;;;3.90;1.50;;;7.30;99.90;;;;;;5084842;28;20268;-64
2021/12/24 08:50:31;;;;;;;1.77;1.43;;;7.30;99.90;;;;;;5084784;28;20197;-64
2021/12/24 08:52:58;;;;;;;2.10;1.53;;;7.30;99.90;;;;;;5083289;28;20240;-64
2021/12/24 08:55:24;;;;;;;5.03;2.13;;;7.30;99.90;;;;;;5084620;28;20254;-64
2021/12/24 08:57:54;;;;;;;1.30;1.20;;;7.30;99.90;;;;;;5084667;28;20211;-63
2021/12/24 09:00:23;;;;;;;1.53;1.40;;;7.30;99.90;;;;;;5084688;28;20343;-64
2021/12/24 09:02:50;;;;;;;1.40;1.20;;;7.30;99.90;;;;;;5084140;28;20263;-63
2021/12/24 09:05:17;;;;;;;1.33;1.23;;;7.30;99.90;;;;;;5084898;28;20232;-64
2021/12/24 09:07:44;;;;;;;1.53;1.43;;;7.30;99.90;;;;;;5083373;28;20360;-60
2021/12/24 09:10:13;;;;;;;1.90;1.33;;;7.40;99.90;;;;;;5084623;28;20213;-64
2021/12/24 09:12:42;;;;;;;1.10;1.10;;;7.40;99.90;;;;;;5084380;28;20264;-62
2021/12/24 09:15:12;;;;;;;1.50;1.13;;;7.40;99.90;;;;;;5084850;28;20205;-62
2021/12/24 09:17:44;;;;;;;3.53;1.73;;;7.40;99.90;;;;;;5084920;28;20208;-63
2021/12/24 09:20:13;;;;;;;1.80;1.37;;;7.40;99.90;;;;;;5085475;28;20291;-63
2021/12/24 09:22:41;;;;;;;1.73;1.37;;;7.50;99.90;;;;;;5087589;28;20336;-61
2021/12/24 09:25:09;;;;;;;0.87;0.80;;;7.50;99.90;;;;;;5087947;28;20200;-63
2021/12/24 09:27:36;;;;;;;6.70;1.83;;;7.40;99.90;;;;;;5088393;28;20205;-64
2021/12/24 09:30:05;;;;;;;1.47;0.97;;;7.50;99.90;;;;;;5088152;28;20273;-64
2021/12/24 09:32:34;;;;;;;2.17;1.30;;;7.50;99.90;;;;;;5088198;28;20310;-63
2021/12/24 09:35:01;;;;;;;1.37;1.27;;;7.50;99.90;;;;;;5088313;28;20291;-64
2021/12/24 09:37:27;;;;;;;1.53;1.20;;;7.50;99.90;;;;;;5087585;28;20260;-63
2021/12/24 09:39:54;;;;;;;3.23;1.60;;;7.60;99.90;;;;;;5087523;28;20208;-64
2021/12/24 09:42:23;;;;;;;6.40;1.03;;;7.60;99.90;;;;;;5088031;28;20375;-63
2021/12/24 09:44:50;;;;;;;1.50;1.03;;;7.60;99.90;;;;;;5088071;28;20200;-63
2021/12/24 09:47:17;;;;;;;1.77;1.10;;;7.70;99.90;;;;;;5088206;28;20274;-63
2021/12/24 09:49:46;;;;;;;7.57;2.03;;;7.70;99.90;;;;;;5087812;28;20650;-64
2021/12/24 09:52:13;;;;;;;3.03;1.70;;;7.70;99.90;;;;;;5087189;28;20573;-62
2021/12/24 09:54:44;;;;;;;6.97;2.23;;;7.60;99.90;;;;;;5086635;28;20364;-63
2021/12/24 09:57:11;;;;;;;1.30;0.97;;;7.70;99.90;;;;;;5087977;28;20211;-64
2021/12/24 09:59:38;;;;;;;3.03;2.03;;;7.70;99.90;;;;;;5087525;28;20205;-63
2021/12/24 10:02:07;;;;;;;1.70;1.10;;;7.70;99.90;;;;;;5087748;28;20209;-63
2021/12/24 10:04:36;;;;;;;5.17;1.27;;;7.70;99.90;;;;;;5087476;28;20294;-64
2021/12/24 10:07:06;;;;;;;1.90;1.20;;;7.70;99.90;;;;;;5087466;28;20217;-64
2021/12/24 10:09:39;;;;;;;3.83;1.10;;;7.70;99.90;;;;;;5086876;28;20268;-64
2021/12/24 10:12:08;;;;;;;1.67;1.47;;;7.70;99.90;;;;;;5087719;28;20204;-63
2021/12/24 10:14:37;;;;;;;5.17;1.40;;;7.70;99.90;;;;;;5087320;28;20205;-64
2021/12/24 10:17:06;;;;;;;7.37;2.13;;;7.70;99.90;;;;;;5087426;28;20216;-63
2021/12/24 10:19:44;;;;;;;17.67;6.47;;;7.80;99.90;;;;;;5087492;28;20211;-63
2021/12/24 10:22:13;;;;;;;2.63;1.10;;;7.80;99.90;;;;;;5086892;28;20208;-63
2021/12/24 10:24:39;;;;;;;6.20;1.73;;;7.80;99.90;;;;;;5086113;28;20225;-64
2021/12/24 10:27:07;;;;;;;3.07;1.90;;;7.80;99.90;;;;;;5087369;28;20211;-64
2021/12/24 10:29:37;;;;;;;3.00;1.63;;;7.80;99.90;;;;;;5087112;28;20276;-64
2021/12/24 10:32:10;;;;;;;1.97;1.50;;;7.80;99.90;;;;;;5086797;28;20201;-64
2021/12/24 10:34:38;;;;;;;1.90;1.57;;;7.80;99.90;;;;;;5086794;28;20219;-64
2021/12/24 10:37:18;;;;;;;1.03;1.00;;;7.80;99.90;;;;;;5086714;28;20295;-64
2021/12/24 10:39:48;;;;;;;5.57;1.17;;;7.80;99.90;;;;;;5086108;28;20215;-64
2021/12/24 10:42:19;;;;;;;1.20;0.87;;;7.70;99.90;;;;;;5086932;28;20268;-64
2021/12/24 10:44:47;;;;;;;4.10;1.37;;;7.80;99.90;;;;;;5086555;28;20277;-63
2021/12/24 10:47:17;;;;;;;3.57;0.90;;;7.70;99.90;;;;;;5087087;28;20228;-63
2021/12/24 10:55:37;;;;;;;0.97;0.83;;;7.70;99.90;;;;;;5086540;28;20199;-63
2021/12/24 10:58:06;;;;;;;0.83;0.70;;;7.80;99.90;;;;;;5086696;28;20216;-64
2021/12/24 11:00:39;;;;;;;1.00;0.90;;;7.80;99.90;;;;;;5086677;28;20205;-64
2021/12/24 11:03:07;;;;;;;1.20;0.87;;;7.80;99.90;;;;;;5086212;28;20267;-64
2021/12/24 11:05:39;;;;;;;1.67;1.17;;;7.90;99.90;;;;;;5086807;28;20201;-63
2021/12/24 11:08:11;;;;;;;0.80;0.80;;;8.00;99.90;;;;;;5085237;28;20215;-64
2021/12/24 11:10:40;;;;;;;0.97;0.97;;;8.00;99.90;;;;;;5086412;28;20201;-64
2021/12/24 11:13:11;;;;;;;1.47;0.90;;;8.00;99.90;;;;;;5085909;28;20217;-64
2021/12/24 11:15:41;;;;;;;1.27;0.80;;;8.10;99.90;;;;;;5086471;28;20205;-63
2021/12/24 11:18:13;;;;;;;1.00;0.90;;;8.10;99.90;;;;;;5086217;28;20268;-63
2021/12/24 11:20:40;;;;;;;1.73;0.80;;;8.10;99.90;;;;;;5086304;28;20205;-64
2021/12/24 11:23:11;;;;;;;0.70;0.70;;;8.10;99.90;;;;;;5084436;28;20297;-63
2021/12/24 11:25:39;;;;;;;2.33;1.00;;;8.10;99.90;;;;;;5085823;28;20248;-64
2021/12/24 11:28:08;;;;;;;1.07;1.00;;;8.10;99.90;;;;;;5086010;28;20204;-63
2021/12/24 11:30:37;;;;;;;1.47;1.17;;;8.10;99.90;;;;;;5086104;28;20288;-64
2021/12/24 11:33:05;;;;;;;2.33;1.00;;;8.10;99.90;;;;;;5085669;28;20273;-63
2021/12/24 11:35:32;;;;;;;1.53;1.00;;;8.10;99.90;;;;;;5086108;28;20205;-63
2021/12/24 11:38:01;;;;;;;2.40;0.80;;;8.10;99.90;;;;;;5084568;28;20377;-63
2021/12/24 11:40:30;;;;;;;1.57;1.00;;;8.10;99.90;;;;;;5085862;28;20204;-64
2021/12/24 11:43:03;;;;;;;1.60;1.00;;;8.10;99.90;;;;;;5084708;28;20284;-63
2021/12/24 11:45:31;;;;;;;1.57;1.30;;;8.10;99.90;;;;;;5085958;28;20189;-63
2021/12/24 11:47:58;;;;;;;1.30;1.17;;;8.10;99.90;;;;;;5085473;28;20297;-63
2021/12/24 11:50:27;;;;;;;1.40;1.10;;;8.10;99.90;;;;;;5085668;28;20232;-64
2021/12/24 11:52:58;;;;;;;3.90;0.87;;;8.10;99.90;;;;;;5084119;28;20264;-63
2021/12/24 11:55:27;;;;;;;8.60;2.33;;;8.10;99.90;;;;;;5085170;28;20185;-63
2021/12/24 11:57:59;;;;;;;4.07;1.00;;;8.10;99.90;;;;;;5085181;28;20584;-63
2021/12/24 12:00:32;;;;;;;2.60;0.83;;;8.10;99.90;;;;;;5085339;28;20219;-64
2021/12/24 12:02:59;;;;;;;3.07;1.27;;;8.10;99.90;;;;;;5085066;28;20258;-63
2021/12/24 12:05:32;;;;;;;0.67;0.67;;;8.10;99.90;;;;;;5085397;28;20205;-64
2021/12/24 12:08:40;;;;;;;1.90;1.00;;;8.10;99.90;;;;;;5084226;28;20224;-64
2021/12/24 12:11:16;;;;;;;1.37;0.90;;;8.10;99.90;;;;;;5085286;28;20610;-63
2021/12/24 12:13:48;;;;;;;1.63;0.80;;;8.10;99.90;;;;;;5084913;28;20283;-63
2021/12/24 12:16:19;;;;;;;0.77;0.77;;;8.10;99.90;;;;;;5085215;28;20257;-64
2021/12/24 12:19:00;;;;;;;2.17;0.80;;;8.10;99.90;;;;;;5085042;28;20200;-63
2021/12/24 12:21:36;;;;;;;7.03;2.23;;;8.10;99.90;;;;;;5085006;28;20258;-63
2021/12/24 12:26:47;;;;;;;2.37;1.00;;;8.10;99.90;;;;;;5084215;28;20201;-62
2021/12/24 12:29:25;;;;;;;1.87;0.87;;;8.20;99.90;;;;;;5085015;28;20228;-63
2021/12/24 12:31:55;;;;;;;4.17;1.33;;;8.20;99.90;;;;;;5084944;28;20659;-64
2021/12/24 12:34:53;;;;;;;2.30;1.03;;;8.20;99.90;;;;;;5084770;28;20608;-63
2021/12/24 12:37:23;;;;;;;0.77;0.77;;;8.20;99.90;;;;;;5084357;28;20236;-63
2021/12/24 12:39:51;;;;;;;2.33;1.10;;;8.20;99.90;;;;;;5084243;28;20236;-64
2021/12/24 12:42:19;;;;;;;1.07;0.90;;;8.20;99.90;;;;;;5085165;28;20205;-64
2021/12/24 12:44:50;;;;;;;1.03;0.97;;;8.20;99.90;;;;;;5084529;28;20229;-63
2021/12/24 12:47:19;;;;;;;1.17;0.93;;;8.30;99.90;;;;;;5085000;28;20212;-63
2021/12/24 12:49:46;;;;;;;1.60;0.83;;;8.30;99.90;;;;;;5084604;28;20293;-64
2021/12/24 12:52:24;;;;;;;2.33;1.57;;;8.40;99.90;;;;;;5084487;28;20236;-63
2021/12/24 12:54:55;;;;;;;3.50;1.07;;;8.40;99.90;;;;;;5085809;28;20197;-62
2021/12/24 12:57:28;;;;;;;1.57;1.00;;;8.40;99.90;;;;;;5088866;28;20196;-62
2021/12/24 13:00:24;;;;;;;5.87;1.00;;;8.50;99.90;;;;;;5088980;28;20211;-63
2021/12/24 13:03:11;;;;;;;3.97;1.13;;;8.50;99.90;;;;;;5088481;28;20211;-62
2021/12/24 13:06:09;;;;;;;3.97;1.40;;;8.50;99.90;;;;;;5089079;28;20193;-63
2021/12/24 13:08:39;;;;;;;1.43;0.83;;;8.50;99.90;;;;;;5025257;28;20207;-63
2021/12/24 13:11:08;;;;;;;2.10;1.40;;;8.50;99.90;;;;;;5026137;28;20217;-63
2021/12/24 13:13:52;;;;;;;1.97;1.20;;;8.50;99.90;;;;;;5025995;28;20199;-63
2021/12/24 13:16:23;;;;;;;2.23;0.97;;;8.50;99.90;;;;;;5026410;28;20690;-64
2021/12/24 13:18:57;;;;;;;1.00;0.97;;;8.40;99.90;;;;;;5025893;28;20203;-63
2021/12/24 13:24:13;;;;;;;4.93;1.07;;;8.40;99.90;;;;;;5033810;28;20390;-63
2021/12/24 13:26:40;;;;;;;2.43;1.00;;;8.40;99.90;;;;;;5034824;28;20223;-62
2021/12/24 13:29:13;;;;;;;0.87;0.83;;;8.40;99.90;;;;;;5035846;28;20195;-61
2021/12/24 13:31:42;;;;;;;1.13;1.00;;;8.40;99.90;;;;;;5034537;28;20696;-63
2021/12/24 13:34:14;;;;;;;2.43;1.30;;;8.40;99.90;;;;;;5023301;28;20760;-63
2021/12/24 13:36:41;;;;;;;5.20;1.40;;;8.40;99.90;;;;;;5026114;28;20239;-64
2021/12/24 13:39:13;;;;;;;2.23;1.43;;;8.40;99.90;;;;;;5024752;28;20239;-63
2021/12/24 13:41:41;;;;;;;1.93;1.33;;;8.30;99.90;;;;;;5037335;28;20281;-63
2021/12/24 13:44:20;;;;;;;4.67;1.17;;;8.30;99.90;;;;;;5087373;28;20354;-64
2021/12/24 13:47:00;;;;;;;0.87;0.80;;;8.30;99.90;;;;;;5085750;28;20196;-63
2021/12/24 13:49:43;;;;;;;2.60;0.90;;;8.30;99.90;;;;;;5085722;28;20266;-63
2021/12/24 13:54:54;;;;;;;1.07;1.00;;;8.30;99.90;;;;;;5086579;28;20200;-63
2021/12/24 13:57:23;;;;;;;0.80;0.80;;;8.30;99.90;;;;;;5087218;28;20292;-64
2021/12/24 13:59:52;;;;;;;0.93;0.90;;;8.30;99.90;;;;;;5087733;28;20228;-63
2021/12/24 14:02:20;;;;;;;3.63;1.17;;;8.20;99.90;;;;;;5087781;28;20271;-64
2021/12/24 14:04:59;;;;;;;0.77;0.77;;;8.30;99.90;;;;;;5086623;28;20308;-63
2021/12/24 14:07:26;;;;;;;2.30;1.10;;;8.30;99.90;;;;;;5085170;28;20212;-62
2021/12/24 14:09:52;;;;;;;4.07;0.90;;;8.30;99.90;;;;;;5086529;28;20268;-64
2021/12/24 14:12:26;;;;;;;1.10;1.00;;;8.20;99.90;;;;;;5087586;28;20201;-63
2021/12/24 14:15:06;;;;;;;3.93;1.07;;;8.20;99.90;;;;;;5087068;28;20207;-64
2021/12/24 14:17:52;;;;;;;1.20;0.90;;;8.20;99.90;;;;;;5087456;28;20222;-63
2021/12/24 14:20:27;;;;;;;1.53;1.13;;;8.20;99.90;;;;;;5087459;28;20247;-64
2021/12/24 14:22:54;;;;;;;3.07;1.50;;;8.10;99.90;;;;;;5085961;28;20204;-63
2021/12/24 14:25:21;;;;;;;1.50;1.20;;;8.10;99.90;;;;;;5086821;28;20225;-64
2021/12/24 14:27:50;;;;;;;5.30;2.03;;;8.10;99.90;;;;;;5087134;28;20212;-63
2021/12/24 14:30:22;;;;;;;3.53;1.97;;;8.00;99.90;;;;;;5087575;28;20225;-63
2021/12/24 14:32:52;;;;;;;1.07;1.00;;;8.10;99.90;;;;;;5086757;28;20212;-64
2021/12/24 14:35:21;;;;;;;0.77;0.70;;;8.00;99.90;;;;;;5087391;28;20286;-65
2021/12/24 14:37:58;;;;;;;1.60;0.80;;;8.00;99.90;;;;;;5085914;28;20312;-64
2021/12/24 14:40:26;;;;;;;1.63;1.00;;;8.00;99.90;;;;;;5087318;28;20201;-65
2021/12/24 14:42:54;;;;;;;1.27;1.17;;;8.00;99.90;;;;;;5086453;28;20212;-65
2021/12/24 14:45:24;;;;;;;4.20;1.17;;;8.00;99.90;;;;;;5086936;28;20284;-67
2021/12/24 14:48:06;;;;;;;3.63;1.10;;;8.00;99.90;;;;;;5086737;28;20229;-66